createdAt,value
2019-03-23T00:00:33.967Z,6.13
2019-03-23T00:03:00.434Z,6.23
2019-03-23T00:05:26.891Z,6.40
2019-03-23T00:07:53.363Z,6.37
2019-03-23T00:10:19.816Z,7.23
2019-03-23T00:12:46.279Z,6.27
2019-03-23T00:15:13.019Z,5.90
2019-03-23T00:17:39.493Z,5.77
2019-03-23T00:20:06.167Z,6.83
2019-03-23T00:22:32.839Z,6.37
2019-03-23T00:24:59.310Z,5.97
2019-03-23T00:27:25.670Z,5.67
2019-03-23T00:29:52.124Z,6.70
2019-03-23T00:32:18.514Z,6.60
2019-03-23T00:34:44.867Z,6.43
2019-03-23T00:37:11.247Z,6.20
2019-03-23T00:39:37.818Z,7.03
2019-03-23T00:42:04.271Z,6.30
2019-03-23T00:44:30.619Z,6.33
2019-03-23T00:46:56.991Z,6.30
2019-03-23T00:49:23.372Z,6.40
2019-03-23T00:51:49.840Z,6.47
2019-03-23T00:54:16.183Z,6.70
2019-03-23T00:56:42.530Z,6.73
2019-03-23T00:59:08.908Z,6.90
2019-03-23T01:01:35.468Z,6.83
2019-03-23T01:04:02.040Z,6.90
2019-03-23T01:06:28.418Z,7.07
2019-03-23T01:08:54.890Z,7.00
2019-03-23T01:11:21.339Z,7.67
2019-03-23T01:13:47.806Z,6.70
2019-03-23T01:16:14.190Z,6.77
2019-03-23T01:18:40.655Z,6.53
2019-03-23T01:21:07.098Z,6.77
2019-03-23T01:23:33.553Z,6.53
2019-03-23T01:26:00.073Z,7.10
2019-03-23T01:28:26.707Z,6.77
2019-03-23T01:30:53.058Z,6.90
2019-03-23T01:33:19.526Z,6.67
2019-03-23T01:35:45.974Z,6.37
2019-03-23T01:38:12.342Z,5.77
2019-03-23T01:40:38.816Z,6.97
2019-03-23T01:43:05.176Z,7.13
2019-03-23T01:45:31.632Z,7.40
2019-03-23T01:47:58.105Z,6.67
2019-03-23T01:50:24.460Z,6.93
2019-03-23T01:52:50.847Z,6.67
2019-03-23T01:55:17.202Z,7.23
2019-03-23T01:57:43.671Z,7.43
2019-03-23T02:00:10.828Z,7.67
2019-03-23T02:02:37.387Z,7.73
2019-03-23T02:05:05.346Z,7.10
2019-03-23T02:07:31.700Z,7.70
2019-03-23T02:09:58.100Z,8.13
2019-03-23T02:12:24.454Z,7.77
2019-03-23T02:14:51.068Z,8.03
2019-03-23T02:17:17.627Z,7.63
2019-03-23T02:19:44.087Z,7.20
2019-03-23T02:22:10.631Z,8.00
2019-03-23T02:24:37.199Z,7.30
2019-03-23T02:27:03.567Z,7.23
2019-03-23T02:29:30.042Z,7.70
2019-03-23T02:31:56.491Z,8.33
2019-03-23T02:34:22.973Z,7.23
2019-03-23T02:36:49.339Z,8.10
2019-03-23T02:39:15.690Z,7.57
2019-03-23T02:41:42.483Z,7.67
2019-03-23T02:44:08.867Z,8.03
2019-03-23T02:46:35.231Z,7.80
2019-03-23T02:49:01.822Z,7.10
2019-03-23T02:51:28.156Z,8.10
2019-03-23T02:53:54.627Z,8.03
2019-03-23T02:56:21.722Z,7.63
2019-03-23T02:58:48.333Z,7.37
2019-03-23T03:01:14.880Z,7.47
2019-03-23T03:03:41.442Z,7.87
2019-03-23T03:06:07.999Z,8.00
2019-03-23T03:08:34.584Z,8.30
2019-03-23T03:11:01.035Z,7.77
2019-03-23T03:13:27.415Z,8.17
2019-03-23T03:15:53.908Z,8.20
2019-03-23T03:18:20.402Z,7.90
2019-03-23T03:20:46.767Z,8.70
2019-03-23T03:23:13.211Z,7.97
2019-03-23T03:25:39.684Z,8.50
2019-03-23T03:28:06.130Z,7.40
2019-03-23T03:30:32.604Z,8.10
2019-03-23T03:32:59.076Z,7.90
2019-03-23T03:35:25.651Z,8.77
2019-03-23T03:37:56.795Z,8.03
2019-03-23T03:40:20.387Z,8.03
2019-03-23T03:42:46.940Z,8.13
2019-03-23T03:45:15.363Z,7.73
2019-03-23T03:47:41.959Z,8.00
2019-03-23T03:50:08.869Z,7.00
2019-03-23T03:52:35.313Z,8.07
2019-03-23T03:55:02.095Z,7.90
2019-03-23T03:57:28.565Z,7.50
2019-03-23T03:59:54.984Z,7.60
2019-03-23T04:02:21.485Z,8.23
2019-03-23T04:04:48.027Z,8.43
2019-03-23T04:07:14.502Z,8.10
2019-03-23T04:09:40.960Z,8.67
2019-03-23T04:12:07.517Z,7.47
2019-03-23T04:14:34.029Z,8.50
2019-03-23T04:17:00.463Z,8.10
2019-03-23T04:19:26.835Z,8.23
2019-03-23T04:21:53.322Z,8.37
2019-03-23T04:24:19.676Z,8.37
2019-03-23T04:26:46.227Z,8.23
2019-03-23T04:29:12.640Z,8.37
2019-03-23T04:31:39.189Z,8.03
2019-03-23T04:34:05.662Z,8.37
2019-03-23T04:36:32.005Z,8.33
2019-03-23T04:38:58.561Z,8.40
2019-03-23T04:41:24.915Z,8.47
2019-03-23T04:43:51.492Z,8.33
2019-03-23T04:46:18.087Z,8.17
2019-03-23T04:48:44.487Z,8.37
2019-03-23T04:51:11.107Z,8.57
2019-03-23T04:53:37.567Z,8.57
2019-03-23T04:56:03.957Z,8.70
2019-03-23T04:58:30.312Z,8.53
2019-03-23T05:00:56.684Z,7.27
2019-03-23T05:03:23.036Z,8.10
2019-03-23T05:05:49.622Z,8.50
2019-03-23T05:08:15.958Z,8.73
2019-03-23T05:10:42.343Z,9.20
2019-03-23T05:13:08.727Z,8.30
2019-03-23T05:15:35.232Z,9.87
2019-03-23T05:18:01.582Z,8.77
2019-03-23T05:20:28.956Z,8.90
2019-03-23T05:22:55.435Z,9.40
2019-03-23T05:25:23.314Z,9.20
2019-03-23T05:27:49.659Z,9.80
2019-03-23T05:30:16.053Z,8.67
2019-03-23T05:32:42.403Z,8.50
2019-03-23T05:35:10.683Z,9.33
2019-03-23T05:37:37.131Z,8.53
2019-03-23T05:40:05.139Z,7.37
2019-03-23T05:42:31.707Z,8.37
2019-03-23T05:44:58.179Z,8.30
2019-03-23T05:47:24.631Z,7.77
2019-03-23T05:49:51.190Z,7.47
2019-03-23T05:52:17.570Z,8.43
2019-03-23T05:54:44.038Z,8.67
2019-03-23T05:57:10.507Z,9.27
2019-03-23T05:59:36.982Z,8.97
2019-03-23T06:02:03.434Z,8.77
2019-03-23T06:04:29.884Z,9.20
2019-03-23T06:06:56.361Z,9.37
2019-03-23T06:09:22.703Z,8.43
2019-03-23T06:11:49.076Z,9.40
2019-03-23T06:14:15.572Z,10.37
2019-03-23T06:16:42.112Z,9.53
2019-03-23T06:19:08.536Z,9.50
2019-03-23T06:21:34.917Z,9.17
2019-03-23T06:24:01.366Z,8.77
2019-03-23T06:26:27.942Z,8.40
2019-03-23T06:28:54.399Z,8.80
2019-03-23T06:31:20.758Z,9.20
2019-03-23T06:33:47.141Z,8.83
2019-03-23T06:36:13.608Z,8.67
2019-03-23T06:38:40.204Z,8.77
2019-03-23T06:41:06.573Z,9.70
2019-03-23T06:43:32.943Z,8.60
2019-03-23T06:45:59.611Z,8.37
2019-03-23T06:48:25.955Z,8.97
2019-03-23T06:50:52.340Z,7.87
2019-03-23T06:53:18.788Z,8.43
2019-03-23T06:55:45.167Z,8.90
2019-03-23T06:58:11.630Z,8.50
2019-03-23T07:00:38.096Z,8.73
2019-03-23T07:03:04.440Z,8.53
2019-03-23T07:05:30.811Z,8.43
2019-03-23T07:07:58.114Z,8.33
2019-03-23T07:10:24.583Z,8.97
2019-03-23T07:12:50.961Z,9.03
2019-03-23T07:15:20.205Z,9.30
2019-03-23T07:17:45.845Z,10.10
2019-03-23T07:20:13.415Z,12.40
2019-03-23T07:22:39.880Z,16.47
2019-03-23T07:25:07.138Z,16.20
2019-03-23T07:27:33.721Z,11.33
2019-03-23T07:30:02.146Z,11.67
2019-03-23T07:32:28.503Z,10.80
2019-03-23T07:34:54.948Z,9.87
2019-03-23T07:37:21.427Z,11.10
2019-03-23T07:39:47.766Z,10.83
2019-03-23T07:42:14.178Z,11.00
2019-03-23T07:44:40.727Z,10.20
2019-03-23T07:47:07.099Z,9.97
2019-03-23T07:49:33.570Z,9.97
2019-03-23T07:51:59.944Z,12.67
2019-03-23T07:54:26.378Z,11.93
2019-03-23T07:56:52.982Z,11.43
2019-03-23T07:59:19.527Z,12.30
2019-03-23T08:01:46.003Z,12.37
2019-03-23T08:04:12.367Z,12.43
2019-03-23T08:06:38.732Z,12.13
2019-03-23T08:09:05.189Z,14.23
2019-03-23T08:11:31.581Z,14.37
2019-03-23T08:13:58.156Z,17.87
2019-03-23T08:16:24.651Z,12.47
2019-03-23T08:18:51.104Z,13.13
2019-03-23T08:21:17.571Z,13.17
2019-03-23T08:23:46.873Z,13.50
2019-03-23T08:26:13.461Z,14.07
2019-03-23T08:28:39.838Z,13.97
2019-03-23T08:31:06.286Z,13.77
2019-03-23T08:33:32.650Z,13.40
2019-03-23T08:35:59.005Z,13.37
2019-03-23T08:38:25.466Z,13.80
2019-03-23T08:40:51.916Z,13.93
2019-03-23T08:43:18.391Z,14.47
2019-03-23T08:45:44.784Z,14.40
2019-03-23T08:48:11.251Z,15.30
2019-03-23T08:50:37.811Z,14.33
2019-03-23T08:53:04.380Z,15.80
2019-03-23T08:55:30.943Z,15.10
2019-03-23T08:57:57.423Z,17.00
2019-03-23T09:00:23.993Z,15.83
2019-03-23T09:02:50.365Z,17.77
2019-03-23T09:05:16.720Z,17.10
2019-03-23T09:07:43.141Z,17.17
2019-03-23T09:10:09.695Z,17.43
2019-03-23T09:12:36.278Z,17.95
2019-03-23T09:15:06.627Z,18.07
2019-03-23T09:17:33.227Z,17.70
2019-03-23T09:19:59.696Z,18.77
2019-03-23T09:22:26.150Z,17.50
2019-03-23T09:24:57.054Z,18.27
2019-03-23T09:27:20.956Z,17.12
2019-03-23T09:29:47.449Z,19.15
2019-03-23T09:32:13.831Z,18.05
2019-03-23T09:34:40.313Z,18.85
2019-03-23T09:37:06.796Z,18.67
2019-03-23T09:39:35.292Z,18.80
2019-03-23T09:42:01.854Z,18.65
2019-03-23T09:44:28.253Z,19.70
2019-03-23T09:46:54.708Z,19.48
2019-03-23T09:49:22.109Z,20.35
2019-03-23T09:51:48.639Z,20.60
2019-03-23T09:54:15.207Z,19.67
2019-03-23T09:56:41.563Z,19.35
2019-03-23T09:59:07.939Z,20.95
2019-03-23T10:01:34.818Z,20.48
2019-03-23T10:04:01.298Z,19.27
2019-03-23T10:06:27.651Z,19.20
2019-03-23T10:08:54.218Z,20.17
2019-03-23T10:11:20.561Z,20.50
2019-03-23T10:13:47.072Z,22.17
2019-03-23T10:16:13.642Z,20.95
2019-03-23T10:18:40.043Z,21.73
2019-03-23T10:21:06.389Z,22.40
2019-03-23T10:23:32.863Z,23.05
2019-03-23T10:25:59.322Z,21.93
2019-03-23T10:28:25.770Z,22.85
2019-03-23T10:30:52.238Z,21.97
2019-03-23T10:33:18.702Z,21.77
2019-03-23T10:35:45.174Z,21.15
2019-03-23T10:38:11.715Z,22.52
2019-03-23T10:40:38.219Z,21.87
2019-03-23T10:43:04.672Z,22.65
2019-03-23T10:45:31.039Z,23.05
2019-03-23T10:50:23.791Z,22.93
2019-03-23T10:52:50.158Z,22.25
2019-03-23T10:55:16.646Z,21.15
2019-03-23T10:57:43.207Z,21.87
2019-03-23T11:00:10.910Z,21.62
2019-03-23T11:02:37.360Z,22.45
2019-03-23T11:05:04.656Z,21.65
2019-03-23T11:07:31.230Z,23.15
2019-03-23T11:09:57.687Z,22.80
2019-03-23T11:12:24.242Z,23.38
2019-03-23T11:14:50.661Z,24.15
2019-03-23T11:17:17.129Z,23.07
2019-03-23T11:19:43.708Z,22.65
2019-03-23T11:22:10.360Z,22.32
2019-03-23T11:24:36.835Z,23.15
2019-03-23T11:27:03.290Z,25.08
2019-03-23T11:29:29.758Z,22.27
2019-03-23T11:31:57.605Z,21.85
2019-03-23T11:34:24.021Z,18.75
2019-03-23T11:36:50.484Z,19.05
2019-03-23T11:39:16.831Z,20.97
2019-03-23T11:41:43.325Z,20.37
2019-03-23T11:44:09.767Z,21.07
2019-03-23T11:46:36.230Z,20.43
2019-03-23T11:49:02.786Z,20.82
2019-03-23T11:51:29.272Z,20.27
2019-03-23T11:53:55.830Z,22.20
2019-03-23T11:56:22.295Z,20.60
2019-03-23T11:58:48.768Z,22.17
2019-03-23T12:01:15.235Z,21.50
2019-03-23T12:03:41.690Z,20.68
2019-03-23T12:06:08.163Z,20.68
2019-03-23T12:08:34.711Z,21.10
2019-03-23T12:11:03.053Z,21.23
2019-03-23T12:13:29.626Z,20.80
2019-03-23T12:15:56.131Z,20.52
2019-03-23T12:18:22.688Z,20.27
2019-03-23T12:20:49.067Z,20.50
2019-03-23T12:23:15.431Z,20.08
2019-03-23T12:25:41.798Z,22.80
2019-03-23T12:28:08.341Z,22.20
2019-03-23T12:30:34.823Z,20.57
2019-03-23T12:33:03.282Z,21.45
2019-03-23T12:35:29.751Z,21.02
2019-03-23T12:37:56.300Z,21.20
2019-03-23T12:40:22.667Z,21.85
2019-03-23T12:42:49.118Z,20.85
2019-03-23T12:45:15.575Z,19.10
2019-03-23T12:47:41.944Z,21.40
2019-03-23T12:50:09.083Z,20.32
2019-03-23T12:52:35.577Z,21.95
2019-03-23T12:55:02.727Z,20.32
2019-03-23T12:57:29.397Z,20.45
2019-03-23T12:59:55.813Z,22.82
2019-03-23T13:02:22.292Z,21.15
2019-03-23T13:04:48.763Z,19.60
2019-03-23T13:07:15.146Z,21.75
2019-03-23T13:09:41.699Z,22.48
2019-03-23T13:12:08.179Z,20.62
2019-03-23T13:14:34.570Z,22.65
2019-03-23T13:17:01.046Z,21.00
2019-03-23T13:19:27.394Z,21.42
2019-03-23T13:21:53.799Z,22.15
2019-03-23T13:24:20.238Z,21.27
2019-03-23T13:26:46.707Z,20.72
2019-03-23T13:29:13.259Z,22.00
2019-03-23T13:31:39.639Z,20.92
2019-03-23T13:34:06.150Z,21.42
2019-03-23T13:36:32.515Z,21.35
2019-03-23T13:38:58.968Z,22.42
2019-03-23T13:41:25.543Z,20.90
2019-03-23T13:43:51.891Z,22.32
2019-03-23T13:46:18.359Z,21.48
2019-03-23T13:48:44.707Z,22.75
2019-03-23T13:51:11.151Z,22.52
2019-03-23T13:53:37.821Z,25.90
2019-03-23T13:56:04.495Z,22.77
2019-03-23T13:58:30.897Z,22.35
2019-03-23T14:00:57.248Z,22.05
2019-03-23T14:03:23.831Z,20.88
2019-03-23T14:05:50.290Z,20.65
2019-03-23T14:08:16.879Z,22.37
2019-03-23T14:10:43.325Z,22.00
2019-03-23T14:13:09.800Z,23.57
2019-03-23T14:15:36.191Z,23.67
2019-03-23T14:18:02.970Z,22.07
2019-03-23T14:20:29.430Z,22.62
2019-03-23T14:23:02.564Z,23.62
2019-03-23T14:25:24.175Z,21.73
2019-03-23T14:27:50.642Z,22.17
2019-03-23T14:30:17.104Z,23.27
2019-03-23T14:32:43.679Z,24.07
2019-03-23T14:35:10.343Z,23.80
2019-03-23T14:37:36.923Z,24.15
2019-03-23T14:40:04.003Z,23.62
2019-03-23T14:42:30.394Z,22.25
2019-03-23T14:44:56.955Z,20.88
2019-03-23T14:47:23.331Z,21.30
2019-03-23T14:49:49.783Z,23.52
2019-03-23T14:52:16.272Z,22.15
2019-03-23T14:54:42.624Z,21.33
2019-03-23T14:57:09.084Z,20.85
2019-03-23T14:59:35.595Z,21.45
2019-03-23T15:02:02.152Z,20.92
2019-03-23T15:04:28.623Z,20.37
2019-03-23T15:06:55.177Z,21.93
2019-03-23T15:09:21.657Z,22.05
2019-03-23T15:11:48.217Z,21.17
2019-03-23T15:14:14.587Z,20.77
2019-03-23T15:16:40.966Z,20.75
2019-03-23T15:19:07.353Z,20.92
2019-03-23T15:21:33.707Z,21.77
2019-03-23T15:24:00.280Z,22.00
2019-03-23T15:26:26.732Z,21.65
2019-03-23T15:28:53.211Z,21.30
2019-03-23T15:31:19.665Z,21.42
2019-03-23T15:33:46.138Z,20.30
2019-03-23T15:36:12.587Z,20.85
2019-03-23T15:38:39.059Z,21.30
2019-03-23T15:41:05.532Z,20.37
2019-03-23T15:43:32.001Z,20.68
2019-03-23T15:45:58.455Z,18.25
2019-03-23T15:48:24.933Z,20.95
2019-03-23T15:50:51.541Z,21.05
2019-03-23T15:53:18.045Z,19.75
2019-03-23T15:55:44.601Z,19.07
2019-03-23T15:58:11.065Z,18.92
2019-03-23T16:00:37.528Z,20.02
2019-03-23T16:03:03.995Z,18.25
2019-03-23T16:05:30.555Z,19.57
2019-03-23T16:07:57.103Z,18.95
2019-03-23T16:10:23.672Z,18.37
2019-03-23T16:12:50.127Z,18.02
2019-03-23T16:15:16.642Z,18.62
2019-03-23T16:17:42.999Z,19.02
2019-03-23T16:20:09.994Z,20.37
2019-03-23T16:22:36.454Z,21.15
2019-03-23T16:25:04.627Z,20.27
2019-03-23T16:27:30.991Z,23.52
2019-03-23T16:29:57.390Z,22.82
2019-03-23T16:32:23.746Z,20.48
2019-03-23T16:34:50.337Z,19.05
2019-03-23T16:37:16.782Z,15.28
2019-03-23T16:39:43.402Z,15.00
2019-03-23T16:42:09.850Z,15.45
2019-03-23T16:44:36.218Z,15.45
2019-03-23T16:47:02.626Z,17.05
2019-03-23T16:49:29.111Z,14.83
2019-03-23T16:51:55.463Z,18.60
2019-03-23T16:54:21.835Z,14.30
2019-03-23T16:56:48.227Z,14.10
2019-03-23T16:59:14.798Z,13.35
2019-03-23T17:01:41.247Z,13.48
2019-03-23T17:04:07.830Z,12.50
2019-03-23T17:06:34.182Z,13.18
2019-03-23T17:09:00.670Z,13.45
2019-03-23T17:11:27.028Z,14.20
2019-03-23T17:13:53.471Z,12.35
2019-03-23T17:16:19.875Z,14.80
2019-03-23T17:18:46.324Z,12.37
2019-03-23T17:21:12.796Z,12.80
2019-03-23T17:23:39.251Z,10.82
2019-03-23T17:26:05.782Z,10.20
2019-03-23T17:28:32.219Z,9.95
2019-03-23T17:30:58.695Z,11.05
2019-03-23T17:33:25.075Z,10.65
2019-03-23T17:35:51.564Z,22.65
2019-03-23T17:38:18.006Z,21.93
2019-03-23T17:40:44.375Z,41.90
2019-03-23T17:43:10.724Z,30.00
2019-03-23T17:45:37.195Z,19.30
2019-03-23T17:48:03.647Z,17.63
2019-03-23T17:50:30.221Z,18.97
2019-03-23T17:52:56.581Z,17.80
2019-03-23T17:55:23.154Z,10.47
2019-03-23T17:57:49.602Z,10.63
2019-03-23T18:00:16.272Z,10.33
2019-03-23T18:02:42.650Z,12.90
2019-03-23T18:05:09.327Z,10.60
2019-03-23T18:07:35.779Z,12.80
2019-03-23T18:10:03.658Z,14.90
2019-03-23T18:12:30.199Z,15.87
2019-03-23T18:14:56.603Z,18.30
2019-03-23T18:17:23.043Z,18.10
2019-03-23T18:19:49.459Z,17.80
2019-03-23T18:22:16.038Z,17.93
2019-03-23T18:24:42.390Z,23.40
2019-03-23T18:27:08.947Z,25.07
2019-03-23T18:29:35.300Z,24.50
2019-03-23T18:32:01.771Z,21.93
2019-03-23T18:34:28.224Z,22.23
2019-03-23T18:36:54.690Z,22.67
2019-03-23T18:39:21.359Z,23.83
2019-03-23T18:41:47.823Z,24.00
2019-03-23T18:44:16.448Z,22.10
2019-03-23T18:46:42.555Z,27.03
2019-03-23T18:49:09.018Z,22.43
2019-03-23T18:51:35.491Z,16.90
2019-03-23T18:54:01.930Z,15.43
2019-03-23T18:56:28.407Z,16.70
2019-03-23T18:58:54.863Z,16.37
2019-03-23T19:01:21.235Z,17.73
2019-03-23T19:03:47.778Z,16.57
2019-03-23T19:06:14.186Z,18.67
2019-03-23T19:08:40.644Z,20.80
2019-03-23T19:11:07.116Z,16.80
2019-03-23T19:13:37.757Z,15.93
2019-03-23T19:16:02.061Z,16.47
2019-03-23T19:18:28.523Z,16.13
2019-03-23T19:20:54.975Z,16.20
2019-03-23T19:23:21.448Z,17.03
2019-03-23T19:25:47.898Z,16.53
2019-03-23T19:28:14.358Z,17.73
2019-03-23T19:30:40.715Z,17.73
2019-03-23T19:33:07.324Z,18.17
2019-03-23T19:35:33.721Z,16.87
2019-03-23T19:38:00.213Z,16.10
2019-03-23T19:40:26.663Z,17.23
2019-03-23T19:42:53.131Z,18.00
2019-03-23T19:45:19.706Z,18.03
2019-03-23T19:47:46.179Z,16.97
2019-03-23T19:50:12.842Z,16.17
2019-03-23T19:52:39.226Z,16.90
2019-03-23T19:55:06.086Z,17.17
2019-03-23T19:57:32.454Z,17.63
2019-03-23T19:59:59.015Z,18.50
2019-03-23T20:02:25.379Z,18.03
2019-03-23T20:04:51.826Z,20.33
2019-03-23T20:07:18.794Z,19.63
2019-03-23T20:09:45.330Z,19.13
2019-03-23T20:12:11.907Z,18.97
2019-03-23T20:14:38.399Z,19.23
2019-03-23T20:17:04.843Z,18.17
2019-03-23T20:19:31.233Z,18.93
2019-03-23T20:21:57.615Z,19.57
2019-03-23T20:24:24.094Z,19.83
2019-03-23T20:26:50.555Z,18.37
2019-03-23T20:29:16.911Z,19.43
2019-03-23T20:31:45.590Z,19.97
2019-03-23T20:34:12.105Z,18.53
2019-03-23T20:36:38.542Z,20.17
2019-03-23T20:39:05.597Z,20.67
2019-03-23T20:41:32.226Z,20.33
2019-03-23T20:44:08.846Z,19.50
2019-03-23T20:46:26.940Z,20.10
2019-03-23T20:48:56.371Z,20.30
2019-03-23T20:51:23.011Z,20.20
2019-03-23T20:53:49.491Z,20.43
2019-03-23T20:56:15.847Z,19.07
2019-03-23T20:58:42.323Z,19.17
2019-03-23T21:01:08.671Z,20.67
2019-03-23T21:03:35.133Z,19.60
2019-03-23T21:06:01.575Z,20.40
2019-03-23T21:08:27.947Z,19.07
2019-03-23T21:10:54.391Z,18.80
2019-03-23T21:13:20.871Z,20.90
2019-03-23T21:15:47.363Z,19.30
2019-03-23T21:18:13.839Z,22.03
2019-03-23T21:20:40.318Z,20.37
2019-03-23T21:23:06.899Z,19.57
2019-03-23T21:25:33.443Z,20.63
2019-03-23T21:27:59.879Z,20.47
2019-03-23T21:30:28.154Z,21.57
2019-03-23T21:32:54.603Z,20.40
2019-03-23T21:35:21.080Z,20.30
2019-03-23T21:37:47.527Z,20.27
2019-03-23T21:40:13.998Z,21.43
2019-03-23T21:42:40.539Z,21.67
2019-03-23T21:45:07.907Z,21.00
2019-03-23T21:47:34.299Z,21.53
2019-03-23T21:50:02.984Z,23.53
2019-03-23T21:52:29.530Z,22.80
2019-03-23T21:54:56.003Z,21.93
2019-03-23T21:57:22.355Z,22.93
2019-03-23T21:59:48.736Z,22.67
2019-03-23T22:02:15.306Z,21.53
2019-03-23T22:04:41.696Z,21.80
2019-03-23T22:07:08.138Z,21.90
2019-03-23T22:09:34.607Z,21.27
2019-03-23T22:12:01.119Z,21.40
2019-03-23T22:14:27.787Z,21.90
2019-03-23T22:16:54.144Z,21.40
2019-03-23T22:19:20.623Z,21.90
2019-03-23T22:21:47.005Z,22.07
2019-03-23T22:24:13.475Z,22.17
2019-03-23T22:26:39.920Z,23.30
2019-03-23T22:29:06.275Z,22.63
2019-03-23T22:31:32.642Z,24.13
2019-03-23T22:33:59.095Z,24.23
2019-03-23T22:36:25.563Z,22.73
2019-03-23T22:38:52.027Z,23.60
2019-03-23T22:41:18.498Z,21.07
2019-03-23T22:43:45.240Z,22.80
2019-03-23T22:46:11.592Z,20.70
2019-03-23T22:48:38.039Z,20.40
2019-03-23T22:51:04.419Z,22.23
2019-03-23T22:53:30.758Z,21.30
2019-03-23T22:55:57.147Z,24.50
2019-03-23T22:58:23.499Z,21.73
2019-03-23T23:00:50.478Z,22.77
2019-03-23T23:03:16.946Z,22.27
2019-03-23T23:05:43.720Z,21.97
2019-03-23T23:08:10.273Z,22.60
2019-03-23T23:10:36.855Z,23.13
2019-03-23T23:13:03.305Z,22.07
2019-03-23T23:15:29.851Z,24.23
2019-03-23T23:17:56.407Z,23.83
2019-03-23T23:20:22.881Z,23.60
2019-03-23T23:22:49.336Z,22.73
2019-03-23T23:25:15.926Z,21.57
2019-03-23T23:27:42.367Z,20.93
2019-03-23T23:30:09.255Z,22.00
2019-03-23T23:32:35.700Z,21.57
2019-03-23T23:35:02.861Z,22.10
2019-03-23T23:37:29.310Z,22.30
2019-03-23T23:39:55.670Z,21.67
2019-03-23T23:42:22.137Z,21.73
2019-03-23T23:44:48.586Z,21.67
2019-03-23T23:47:14.966Z,21.57
2019-03-23T23:49:41.423Z,20.83
2019-03-23T23:52:07.899Z,22.37
2019-03-23T23:54:34.261Z,21.97
2019-03-23T23:57:00.765Z,21.83
2019-03-23T23:59:27.849Z,22.77
